Time;durP1;ratioP1;P1;durP2;ratioP2;P2;SDS_P1;SDS_P2;PMS_P1;PMS_P2;Temp;Humidity;BMP_temperature;BMP_pressure;BME280_temperature;BME280_humidity;BME280_pressure;Samples;Min_cycle;Max_cycle;Signal;HPM_P1;HPM_P2
2024/04/12 00:02:11;;;;;;;29.67;19.17;;;;;;;31.12;73.85;100925.00;5382976;26;65340;-32
2024/04/12 00:04:45;;;;;;;25.55;18.60;;;;;;;31.09;74.25;100928.16;5385166;26;68633;-32
2024/04/12 00:07:16;;;;;;;32.33;19.30;;;;;;;31.14;75.36;100930.19;5382330;26;64996;-31
2024/04/12 00:09:52;;;;;;;32.55;20.48;;;;;;;31.21;73.84;100941.81;5378402;26;68906;-30
2024/04/12 00:12:26;;;;;;;35.47;18.90;;;;;;;31.10;74.68;100921.66;5383491;26;65159;-31
2024/04/12 00:15:15;;;;;;;24.55;18.15;;;;;;;31.26;75.29;100941.13;5385191;26;67860;-30
2024/04/12 00:17:48;;;;;;;33.35;19.98;;;;;;;31.28;75.78;100947.16;5387585;26;65097;-32
2024/04/12 00:20:20;;;;;;;25.47;19.20;;;;;;;31.30;75.67;100950.47;5383912;26;68573;-31
2024/04/12 00:22:55;;;;;;;25.50;18.00;;;;;;;31.35;75.06;100953.38;5385599;26;64971;-30
2024/04/12 00:25:26;;;;;;;29.60;19.67;;;;;;;31.37;76.37;100951.28;5386118;26;69158;-31
2024/04/12 00:27:57;;;;;;;28.48;18.70;;;;;;;31.38;77.55;100958.38;5385566;26;65051;-31
2024/04/12 00:30:38;;;;;;;19.08;17.05;;;;;;;31.41;76.67;100957.91;5380171;26;69163;-35
2024/04/12 00:33:11;;;;;;;24.55;18.05;;;;;;;31.44;76.09;100962.91;5383969;26;65105;-30
2024/04/12 00:35:46;;;;;;;20.20;16.20;;;;;;;31.46;74.82;100959.97;5386710;26;69053;-31
2024/04/12 00:38:17;;;;;;;24.27;17.98;;;;;;;31.53;75.44;100961.56;5365124;26;65534;-32
2024/04/12 00:40:52;;;;;;;26.75;18.42;;;;;;;31.52;76.28;100959.91;5387709;26;67906;-31
2024/04/12 00:43:27;;;;;;;25.33;18.23;;;;;;;31.53;75.46;100958.84;5386732;26;64996;-32
2024/04/12 00:45:58;;;;;;;19.65;17.55;;;;;;;31.56;75.97;100963.00;5385972;26;68656;-32
2024/04/12 00:48:29;;;;;;;23.10;17.48;;;;;;;31.57;75.76;100954.66;5385098;26;65204;-31
2024/04/12 00:51:02;;;;;;;23.08;18.83;;;;;;;31.54;77.05;100960.53;5377152;26;68975;-31
2024/04/12 00:53:34;;;;;;;24.25;17.92;;;;;;;31.64;75.16;100956.47;5349279;26;64827;-30
2024/04/12 00:56:09;;;;;;;25.55;18.00;;;;;;;31.51;77.33;100946.56;5373572;26;69211;-30
2024/04/12 00:58:44;;;;;;;20.83;18.02;;;;;;;31.73;75.53;100957.81;5312898;26;65181;-31
2024/04/12 01:01:16;;;;;;;28.13;18.23;;;;;;;31.65;75.92;100963.53;5377744;26;68131;-31
2024/04/12 01:03:47;;;;;;;31.52;18.58;;;;;;;31.64;76.94;100957.28;5380111;26;64073;-31
2024/04/12 01:06:21;;;;;;;26.80;18.13;;;;;;;31.75;74.77;100964.69;5379458;26;68706;-31
2024/04/12 01:08:54;;;;;;;21.23;17.27;;;;;;;31.77;75.60;100969.88;5381437;26;64425;-32
2024/04/12 01:11:31;;;;;;;20.52;17.15;;;;;;;31.84;75.28;100973.34;5386688;26;68053;-31
2024/04/12 01:14:02;;;;;;;19.48;17.13;;;;;;;31.88;73.53;100977.28;5384950;26;65067;-31
2024/04/12 01:16:35;;;;;;;24.85;17.45;;;;;;;31.90;74.25;100982.47;5384078;26;68579;-31
2024/04/12 01:19:11;;;;;;;21.58;16.33;;;;;;;31.90;74.65;100983.31;5386181;26;65217;-31
2024/04/12 01:21:44;;;;;;;21.95;16.13;;;;;;;31.91;74.42;100982.28;5382597;26;67799;-31
2024/04/12 01:24:16;;;;;;;18.17;16.35;;;;;;;31.93;73.14;100982.91;5360652;26;64462;-31
2024/04/12 01:26:49;;;;;;;20.83;16.55;;;;;;;31.96;74.33;100998.72;5383336;26;68190;-32
2024/04/12 01:29:23;;;;;;;20.45;16.70;;;;;;;32.03;73.63;100999.47;5389612;26;65361;-31
2024/04/12 01:31:54;;;;;;;18.38;16.45;;;;;;;32.03;73.85;100999.47;5383090;26;68829;-33
2024/04/12 01:34:25;;;;;;;17.35;15.55;;;;;;;32.05;73.43;101002.78;5383368;26;64334;-31
2024/04/12 01:37:00;;;;;;;19.02;15.65;;;;;;;32.11;72.76;101003.78;5384947;26;68842;-32
2024/04/12 01:39:34;;;;;;;19.10;15.95;;;;;;;32.15;73.45;101004.13;5386124;26;65558;-32
2024/04/12 01:42:05;;;;;;;20.00;16.75;;;;;;;32.17;73.46;101002.03;5363105;26;68863;-30
2024/04/12 01:44:38;;;;;;;19.05;15.95;;;;;;;32.21;72.08;101000.56;5385281;26;64312;-31
2024/04/12 01:47:08;;;;;;;18.90;15.57;;;;;;;32.24;72.84;100997.38;5362056;26;68827;-32
2024/04/12 01:49:43;;;;;;;18.65;15.38;;;;;;;32.26;73.30;100987.09;5383334;26;64667;-31
2024/04/12 01:52:25;;;;;;;20.20;15.55;;;;;;;32.29;73.22;100989.38;5384713;26;68132;-31
2024/04/12 01:55:05;;;;;;;20.48;15.68;;;;;;;32.32;71.71;100983.50;5381477;26;65112;-31
2024/04/12 01:57:41;;;;;;;21.10;15.52;;;;;;;32.34;71.63;100989.50;5385108;26;69285;-35
2024/04/12 02:00:16;;;;;;;16.42;14.75;;;;;;;32.37;72.82;100996.38;5361346;26;64134;-32
2024/04/12 02:02:58;;;;;;;16.58;15.05;;;;;;;32.41;71.69;100998.41;5390476;26;69296;-31
2024/04/12 02:05:33;;;;;;;15.93;14.45;;;;;;;32.40;71.70;100987.75;5386150;26;63611;-31
2024/04/12 02:08:16;;;;;;;16.90;15.07;;;;;;;32.45;71.73;100980.59;5363260;26;68843;-29
2024/04/12 02:10:49;;;;;;;16.77;15.15;;;;;;;32.50;72.04;100985.38;5381300;26;65312;-31
2024/04/12 02:13:23;;;;;;;17.13;15.32;;;;;;;32.53;72.72;100990.34;5385276;26;68118;-31
2024/04/12 02:15:54;;;;;;;16.38;14.70;;;;;;;32.55;71.42;100984.69;5384582;26;64941;-31
2024/04/12 02:18:32;;;;;;;20.45;14.57;;;;;;;32.55;71.02;100982.00;5380437;26;68200;-32
2024/04/12 02:21:10;;;;;;;16.08;14.60;;;;;;;32.61;71.93;100989.22;5384128;26;63881;-31
2024/04/12 02:23:43;;;;;;;15.63;14.25;;;;;;;32.67;72.09;100983.69;5381114;26;68596;-30
2024/04/12 02:26:15;;;;;;;16.60;13.90;;;;;;;32.66;72.14;100983.94;5385606;26;64998;-31
2024/04/12 02:28:47;;;;;;;15.38;14.00;;;;;;;32.74;71.50;100978.16;5383787;26;67980;-31
2024/04/12 02:31:19;;;;;;;15.90;14.48;;;;;;;32.77;71.97;100991.28;5379830;26;65292;-31
2024/04/12 02:33:54;;;;;;;17.40;15.70;;;;;;;32.81;71.46;100980.78;5385673;26;68299;-31
2024/04/12 02:36:30;;;;;;;17.63;15.68;;;;;;;32.84;71.04;100977.59;5388733;26;64320;-31
2024/04/12 02:39:06;;;;;;;15.95;14.45;;;;;;;32.87;71.09;100972.53;5373960;26;68145;-31
2024/04/12 02:41:37;;;;;;;16.67;14.82;;;;;;;32.89;70.79;100975.84;5383474;26;64893;-31
2024/04/12 02:44:09;;;;;;;17.30;15.15;;;;;;;32.93;70.89;100965.31;5380492;26;67801;-31
2024/04/12 02:46:40;;;;;;;;;;;;;;;32.89;72.12;100966.88;5383567;26;64815;-31
2024/04/12 02:49:12;;;;;;;15.90;14.13;;;;;;;33.01;70.84;100977.78;5383860;26;68730;-31
2024/04/12 02:51:47;;;;;;;15.57;14.27;;;;;;;33.03;70.37;100968.34;5382208;26;65739;-29
2024/04/12 02:54:19;;;;;;;16.05;14.15;;;;;;;33.07;70.30;100965.97;5387597;26;67919;-31
2024/04/12 02:56:56;;;;;;;15.60;14.30;;;;;;;33.10;71.27;100966.38;5381219;26;64978;-32
2024/04/12 02:59:27;;;;;;;17.40;14.90;;;;;;;33.12;70.41;100960.69;5384149;26;67964;-32
2024/04/12 03:01:58;;;;;;;17.98;13.98;;;;;;;33.17;71.00;100955.38;5382704;26;65007;-30
2024/04/12 03:04:29;;;;;;;15.93;14.63;;;;;;;33.20;70.12;100963.06;5381084;26;68443;-30
2024/04/12 03:07:11;;;;;;;15.57;14.20;;;;;;;33.24;69.85;100958.81;5384967;26;64990;-31
2024/04/12 03:09:42;;;;;;;15.50;14.20;;;;;;;33.26;71.12;100958.56;5384393;26;68422;-34
2024/04/12 03:12:13;;;;;;;15.63;14.27;;;;;;;33.28;70.00;100957.28;5401661;26;65621;-32
2024/04/12 03:14:47;;;;;;;18.05;14.75;;;;;;;33.33;70.82;100954.69;5384679;26;67843;-31
2024/04/12 03:17:17;;;;;;;16.02;14.60;;;;;;;33.36;70.57;100950.66;5381883;26;65144;-30
2024/04/12 03:19:56;;;;;;;15.45;14.15;;;;;;;33.38;70.97;100954.00;5384532;26;69069;-30
2024/04/12 03:22:28;;;;;;;15.43;14.07;;;;;;;33.43;70.87;100947.81;5381803;26;64310;-31
2024/04/12 03:24:58;;;;;;;18.52;13.88;;;;;;;33.47;70.56;100949.84;5383476;26;69649;-31
2024/04/12 03:27:29;;;;;;;15.40;14.10;;;;;;;33.47;70.51;100935.44;5383239;26;64990;-31
2024/04/12 03:30:00;;;;;;;16.10;14.63;;;;;;;33.51;70.65;100925.72;5405304;26;68982;-32
2024/04/12 03:32:32;;;;;;;15.55;14.30;;;;;;;33.55;69.69;100924.22;5380527;26;65719;-31
2024/04/12 03:35:08;;;;;;;15.25;13.98;;;;;;;33.59;70.75;100936.28;5384495;26;68544;-31
2024/04/12 03:37:40;;;;;;;16.80;14.18;;;;;;;33.63;69.68;100923.88;5382585;26;64632;-31
2024/04/12 03:40:17;;;;;;;14.88;13.73;;;;;;;33.66;70.12;100917.94;5383262;26;68724;-33
2024/04/12 03:42:48;;;;;;;15.52;14.07;;;;;;;33.70;70.42;100921.81;5384603;26;63825;-33
2024/04/12 03:45:18;;;;;;;15.63;14.20;;;;;;;33.72;70.07;100919.69;5390420;26;68891;-32
2024/04/12 03:47:51;;;;;;;15.40;14.13;;;;;;;33.72;70.58;100911.53;5404047;26;64794;-32
2024/04/12 03:50:22;;;;;;;15.20;13.68;;;;;;;33.80;70.40;100922.06;5383727;26;69345;-33
2024/04/12 03:52:53;;;;;;;15.80;14.70;;;;;;;33.85;69.45;100906.88;5386489;26;66112;-33
2024/04/12 03:55:24;;;;;;;15.00;13.93;;;;;;;33.86;70.39;100908.56;5349306;26;68176;-32
2024/04/12 03:57:54;;;;;;;15.80;14.45;;;;;;;33.90;69.66;100898.84;5376190;26;63826;-32
2024/04/12 04:00:25;;;;;;;15.40;14.13;;;;;;;33.93;69.87;100892.91;5387291;26;68827;-32
2024/04/12 04:02:58;;;;;;;15.32;13.82;;;;;;;33.96;70.21;100887.84;5387120;26;65482;-36
2024/04/12 04:05:29;;;;;;;16.05;14.57;;;;;;;33.98;69.30;100884.84;5384056;26;68535;-34
2024/04/12 04:08:00;;;;;;;15.00;13.70;;;;;;;33.98;70.18;100874.78;5384795;26;65085;-32
2024/04/12 04:10:31;;;;;;;15.60;14.03;;;;;;;34.03;70.07;100874.06;5386436;26;68958;-36
2024/04/12 04:13:03;;;;;;;14.13;12.93;;;;;;;34.07;69.19;100871.72;5384012;26;66231;-35
2024/04/12 04:15:36;;;;;;;14.98;13.68;;;;;;;34.10;69.02;100866.63;5384969;26;67634;-31
2024/04/12 04:18:10;;;;;;;15.98;14.30;;;;;;;34.14;69.82;100851.47;5384590;26;65225;-31
2024/04/12 04:20:41;;;;;;;16.10;14.43;;;;;;;34.14;69.33;100840.56;5407309;26;69263;-32
2024/04/12 04:23:12;;;;;;;15.90;14.30;;;;;;;34.20;69.51;100849.66;5390664;26;65105;-34
2024/04/12 04:25:44;;;;;;;15.18;13.60;;;;;;;34.23;69.05;100833.66;5384036;26;68869;-33
2024/04/12 04:28:15;;;;;;;14.25;13.00;;;;;;;34.26;69.86;100826.88;5386403;26;65119;-32
2024/04/12 04:30:45;;;;;;;14.50;13.60;;;;;;;34.29;69.67;100826.41;5386787;26;68961;-31
2024/04/12 04:33:17;;;;;;;14.65;13.52;;;;;;;34.31;69.30;100820.72;5384096;26;65002;-31
2024/04/12 04:35:47;;;;;;;15.20;13.82;;;;;;;34.37;69.11;100825.19;5386334;26;67968;-33
2024/04/12 04:38:18;;;;;;;14.90;13.57;;;;;;;34.28;69.60;100799.44;5385629;26;64889;-32
2024/04/12 04:40:58;;;;;;;14.45;13.27;;;;;;;34.23;68.65;100790.09;5375977;26;68362;-32
2024/04/12 04:43:30;;;;;;;16.20;13.35;;;;;;;34.43;68.74;100805.13;5387104;26;65172;-32
2024/04/12 04:46:25;;;;;;;14.80;13.40;;;;;;;34.46;68.95;100804.63;5385960;26;68968;-32
2024/04/12 04:48:54;;;;;;;14.43;13.07;;;;;;;34.54;69.07;100793.31;5385480;26;65102;-32
2024/04/12 04:51:25;;;;;;;15.63;14.02;;;;;;;34.58;68.43;100796.44;5385195;26;68506;-31
2024/04/12 04:53:56;;;;;;;14.07;12.93;;;;;;;34.58;68.42;100797.25;5400330;26;65328;-34
2024/04/12 04:56:30;;;;;;;15.43;13.85;;;;;;;34.60;68.77;100795.13;5386449;26;69098;-32
2024/04/12 04:59:01;;;;;;;16.40;13.20;;;;;;;34.63;68.85;100782.88;5382402;26;65844;-32
2024/04/12 05:01:34;;;;;;;14.63;13.63;;;;;;;34.66;68.75;100783.22;5386087;26;69345;-32
2024/04/12 05:04:05;;;;;;;14.30;13.13;;;;;;;34.71;68.62;100774.28;5384241;26;64784;-31
2024/04/12 05:06:36;;;;;;;13.73;12.65;;;;;;;34.72;68.29;100764.22;5382518;26;68756;-32
2024/04/12 05:09:08;;;;;;;13.63;12.38;;;;;;;34.74;68.69;100753.88;5383895;26;64880;-32
2024/04/12 05:11:40;;;;;;;14.88;13.57;;;;;;;34.78;67.94;100755.88;5385305;26;69009;-32
2024/04/12 05:14:14;;;;;;;14.35;13.23;;;;;;;34.82;68.21;100756.19;5382928;26;65653;-32
2024/04/12 05:16:45;;;;;;;15.07;13.38;;;;;;;34.84;67.78;100751.31;5385774;26;67835;-31
2024/04/12 05:19:19;;;;;;;14.63;13.35;;;;;;;34.88;68.14;100738.81;5384544;26;65307;-32
2024/04/12 05:21:52;;;;;;;13.52;12.65;;;;;;;34.93;67.79;100728.00;5385292;26;67921;-33
2024/04/12 05:24:24;;;;;;;14.30;13.10;;;;;;;34.94;67.62;100724.22;5385535;26;65377;-31
2024/04/12 05:27:01;;;;;;;15.68;13.63;;;;;;;35.00;67.82;100723.22;5389085;26;67653;-32
2024/04/12 05:29:34;;;;;;;13.82;12.73;;;;;;;35.02;67.55;100714.75;5390146;26;64782;-35
2024/04/12 05:32:09;;;;;;;14.98;13.57;;;;;;;35.07;67.54;100715.69;5385128;26;68235;-31
2024/04/12 05:34:40;;;;;;;14.13;12.82;;;;;;;35.08;67.67;100709.16;5385721;26;65087;-32
2024/04/12 05:37:15;;;;;;;13.63;12.77;;;;;;;35.12;67.21;100704.03;5385325;26;69175;-31
2024/04/12 05:39:46;;;;;;;15.02;13.63;;;;;;;35.17;67.26;100706.00;5380988;26;64228;-32
2024/04/12 05:42:18;;;;;;;14.10;13.02;;;;;;;35.17;67.27;100697.81;5385960;26;68774;-34
2024/04/12 05:44:52;;;;;;;14.73;13.48;;;;;;;35.20;67.48;100689.94;5375369;26;65053;-31
2024/04/12 05:47:24;;;;;;;12.80;11.90;;;;;;;35.24;67.09;100680.16;5382653;26;69344;-32
2024/04/12 05:49:55;;;;;;;;;;;;;;;35.22;66.61;100676.06;5385637;26;64947;-32
2024/04/12 05:52:29;;;;;;;13.70;12.48;;;;;;;35.33;66.91;100672.38;5381945;26;68067;-31
2024/04/12 05:55:09;;;;;;;13.60;12.55;;;;;;;35.36;66.81;100666.41;5385691;26;65408;-32
2024/04/12 05:57:42;;;;;;;13.13;12.10;;;;;;;35.35;66.67;100642.94;5384173;26;68969;-31
2024/04/12 06:00:12;;;;;;;;;;;;;;;35.38;66.75;100653.31;5385663;26;65275;-33
2024/04/12 06:02:43;;;;;;;14.80;13.23;;;;;;;35.48;66.84;100653.44;5396386;26;68356;-31
2024/04/12 06:05:18;;;;;;;13.90;12.75;;;;;;;35.51;66.55;100642.00;5387754;26;65200;-34
2024/04/12 06:07:49;;;;;;;13.93;12.68;;;;;;;35.54;66.91;100644.22;5353492;26;68479;-30
2024/04/12 06:10:22;;;;;;;13.13;12.10;;;;;;;35.58;66.72;100637.22;5383449;26;65391;-33
2024/04/12 06:12:54;;;;;;;13.95;12.77;;;;;;;35.62;66.11;100631.25;5382234;26;69435;-32
2024/04/12 06:15:28;;;;;;;12.82;11.82;;;;;;;35.62;66.75;100617.59;5383980;26;65533;-31
2024/04/12 06:18:00;;;;;;;13.27;12.13;;;;;;;35.71;66.71;100630.50;5385171;26;68615;-34
2024/04/12 06:20:31;;;;;;;13.77;12.75;;;;;;;35.76;66.38;100627.00;5383091;26;64201;-31
2024/04/12 06:23:09;;;;;;;13.45;12.40;;;;;;;35.78;65.94;100611.19;5385230;26;68729;-33
2024/04/12 06:25:48;;;;;;;13.48;12.25;;;;;;;35.69;65.97;100593.63;5384278;26;65087;-31
2024/04/12 06:28:20;;;;;;;13.32;12.30;;;;;;;35.85;65.96;100608.22;5364863;26;67927;-32
2024/04/12 06:30:59;;;;;;;13.02;11.93;;;;;;;35.95;66.12;100613.78;5384809;26;65997;-32
2024/04/12 06:33:33;;;;;;;12.93;12.02;;;;;;;35.76;66.12;100566.97;5383413;26;67783;-31
2024/04/12 06:36:06;;;;;;;13.07;12.10;;;;;;;36.02;66.13;100587.91;5395848;26;64365;-31
2024/04/12 06:38:39;;;;;;;13.55;12.50;;;;;;;36.07;65.87;100583.59;5393797;26;68052;-31
2024/04/12 06:41:10;;;;;;;12.75;12.02;;;;;;;36.10;65.94;100578.41;5381818;26;65575;-32
2024/04/12 06:43:45;;;;;;;12.57;11.77;;;;;;;36.15;65.32;100577.63;5384387;26;68831;-32
2024/04/12 06:46:18;;;;;;;13.05;11.95;;;;;;;36.16;65.56;100566.47;5381303;26;64861;-33
2024/04/12 06:48:50;;;;;;;12.98;11.98;;;;;;;36.24;65.84;100570.56;5380850;26;68527;-31
2024/04/12 06:51:24;;;;;;;12.85;11.82;;;;;;;36.16;65.71;100539.16;5384550;26;64078;-30
2024/04/12 06:53:55;;;;;;;12.07;11.35;;;;;;;36.31;64.78;100562.97;5376871;26;68840;-31
2024/04/12 06:56:26;;;;;;;12.20;11.32;;;;;;;36.37;65.60;100561.09;5372191;26;65259;-31
2024/04/12 06:58:57;;;;;;;11.85;10.95;;;;;;;36.40;65.59;100561.38;5379050;26;68118;-33
2024/04/12 07:01:33;;;;;;;11.98;11.07;;;;;;;36.46;65.06;100560.31;5385466;26;64566;-31
2024/04/12 07:04:05;;;;;;;12.63;11.45;;;;;;;36.51;65.05;100566.91;5384163;26;69726;-32
2024/04/12 07:06:36;;;;;;;12.18;11.05;;;;;;;36.54;65.06;100560.94;5382102;26;65968;-31
2024/04/12 07:09:10;;;;;;;12.45;11.65;;;;;;;36.59;65.49;100566.41;5392859;26;67465;-32
2024/04/12 07:11:41;;;;;;;;;;;;;;;36.55;64.42;100557.09;5384083;26;64336;-31
2024/04/12 07:14:12;;;;;;;11.75;10.63;;;;;;;36.65;64.48;100552.50;5384949;26;69044;-32
2024/04/12 07:16:43;;;;;;;11.85;10.70;;;;;;;36.70;64.64;100554.44;5384247;26;64106;-33
2024/04/12 07:19:14;;;;;;;11.05;10.32;;;;;;;36.76;64.86;100556.09;5382906;26;69345;-32
2024/04/12 07:22:06;;;;;;;;;;;;;;;36.71;64.45;100550.59;5365133;26;65315;-32
2024/04/12 07:24:38;;;;;;;11.80;10.77;;;;;;;36.84;65.00;100550.09;5380424;26;67805;-33
2024/04/12 07:27:14;;;;;;;11.50;10.80;;;;;;;36.89;64.32;100546.56;5375978;26;64729;-32
2024/04/12 07:29:58;;;;;;;11.68;10.77;;;;;;;36.96;64.93;100543.56;5380855;26;69008;-33
2024/04/12 07:32:35;;;;;;;12.00;10.88;;;;;;;36.98;64.88;100539.47;5384517;26;64492;-31
2024/04/12 07:35:24;;;;;;;12.65;11.55;;;;;;;37.00;64.95;100536.44;5383921;26;68542;-32
2024/04/12 07:37:59;;;;;;;11.95;10.77;;;;;;;37.06;64.07;100535.44;5382716;26;64805;-32
2024/04/12 07:40:39;;;;;;;11.68;10.93;;;;;;;37.08;63.75;100536.81;5378875;26;68596;-32
2024/04/12 07:43:12;;;;;;;11.07;10.38;;;;;;;37.13;64.41;100530.50;5391708;26;64440;-31
2024/04/12 07:45:49;;;;;;;10.80;9.95;;;;;;;37.15;63.98;100525.59;5400194;26;67882;-31
2024/04/12 07:50:56;;;;;;;11.50;10.45;;;;;;;37.23;64.10;100525.03;5382094;26;68780;-32
2024/04/12 07:53:30;;;;;;;11.02;10.02;;;;;;;37.23;64.37;100519.56;5380739;26;64513;-32
2024/04/12 07:56:08;;;;;;;12.65;10.15;;;;;;;37.28;64.53;100527.78;5378082;26;68589;-31
2024/04/12 07:58:42;;;;;;;11.48;10.50;;;;;;;37.30;64.36;100528.31;5379458;26;64651;-33
2024/04/12 08:01:18;;;;;;;10.27;9.68;;;;;;;37.33;64.10;100524.22;5379224;26;68452;-33
2024/04/12 08:04:05;;;;;;;11.20;10.02;;;;;;;37.34;63.65;100528.63;5382976;26;65087;-30
2024/04/12 08:06:36;;;;;;;11.15;10.20;;;;;;;37.39;64.25;100523.16;5378051;26;69266;-32
2024/04/12 08:09:21;;;;;;;10.65;9.95;;;;;;;37.38;64.12;100515.19;5382171;26;64099;-31
2024/04/12 08:11:58;;;;;;;11.20;9.90;;;;;;;37.41;64.43;100520.94;5401936;26;68923;-31
2024/04/12 08:14:29;;;;;;;11.07;10.18;;;;;;;37.44;63.57;100514.09;5380994;26;65483;-33
2024/04/12 08:17:01;;;;;;;11.75;10.65;;;;;;;37.45;64.04;100510.28;5383553;26;68093;-33
2024/04/12 08:19:38;;;;;;;;;;;;;;;37.39;63.16;100516.84;5381819;26;64944;-32
2024/04/12 08:22:17;;;;;;;13.20;9.55;;;;;;;37.48;63.85;100515.22;5372983;26;68439;-31
2024/04/12 08:24:49;;;;;;;10.82;9.90;;;;;;;37.51;64.36;100509.22;5380452;26;66089;-32
2024/04/12 08:27:24;;;;;;;11.02;9.43;;;;;;;37.51;63.58;100509.22;5382994;26;67939;-31
2024/04/12 08:29:56;;;;;;;11.18;10.27;;;;;;;37.50;63.82;100502.94;5381376;26;65066;-30
2024/04/12 08:32:28;;;;;;;10.57;9.77;;;;;;;37.52;64.38;100497.16;5380983;26;69226;-31
2024/04/12 08:35:06;;;;;;;10.48;9.63;;;;;;;37.53;64.12;100501.56;5410234;26;63356;-31
2024/04/12 08:37:38;;;;;;;10.30;9.60;;;;;;;37.52;63.29;100497.97;5380767;26;68836;-34
2024/04/12 08:40:09;;;;;;;10.00;9.15;;;;;;;37.53;63.86;100496.09;5383826;26;64149;-31
2024/04/12 08:42:41;;;;;;;11.23;10.00;;;;;;;37.53;64.09;100501.56;5369410;26;69169;-32
2024/04/12 08:45:18;;;;;;;9.52;8.73;;;;;;;37.56;64.17;100490.88;5385151;26;65469;-32
2024/04/12 08:48:25;;;;;;;10.40;9.60;;;;;;;37.53;63.84;100490.63;5386569;26;67876;-32
2024/04/12 08:51:04;;;;;;;10.00;9.23;;;;;;;37.56;63.84;100484.59;5391632;26;65183;-31
2024/04/12 08:53:44;;;;;;;9.55;8.68;;;;;;;37.56;64.51;100490.06;5383670;26;67879;-35
2024/04/12 08:56:17;;;;;;;9.07;8.57;;;;;;;37.56;64.46;100501.81;5381351;26;64212;-31
2024/04/12 08:58:52;;;;;;;10.10;9.40;;;;;;;37.56;63.70;100490.88;5385753;26;68763;-32
2024/04/12 09:01:26;;;;;;;12.70;9.73;;;;;;;37.57;64.05;100483.47;5378058;26;64224;-31
2024/04/12 09:04:12;;;;;;;11.65;9.30;;;;;;;37.55;64.35;100488.41;5386363;26;69293;-32
2024/04/12 09:06:48;;;;;;;10.63;9.75;;;;;;;37.57;64.18;100491.69;5367234;26;65490;-33
2024/04/12 09:09:19;;;;;;;11.07;9.82;;;;;;;37.59;64.19;100494.97;5384617;26;68809;-31
2024/04/12 09:11:54;;;;;;;20.83;10.02;;;;;;;37.63;65.26;100485.09;5385319;26;64971;-31
2024/04/12 09:14:26;;;;;;;14.43;10.93;;;;;;;37.67;65.19;100486.22;5386226;26;67676;-32
2024/04/12 09:17:06;;;;;;;24.73;12.32;;;;;;;37.68;65.20;100482.38;5387697;26;64064;-32
2024/04/12 09:19:39;;;;;;;16.88;11.57;;;;;;;37.68;64.77;100482.38;5388201;26;68868;-32
2024/04/12 09:22:10;;;;;;;13.02;11.63;;;;;;;37.65;64.53;100488.41;5372168;26;63681;-32
2024/04/12 09:24:41;;;;;;;21.92;11.55;;;;;;;37.66;65.29;100483.75;5387049;26;68662;-32
2024/04/12 09:27:13;;;;;;;;;;;;;;;37.62;65.96;100478.00;5398840;26;65072;-31
2024/04/12 09:29:54;;;;;;;13.75;11.10;;;;;;;37.57;65.81;100478.00;5386554;26;68545;-34
2024/04/12 09:35:18;;;;;;;19.13;11.27;;;;;;;37.40;66.55;100455.56;5380156;26;68636;-31
2024/04/12 09:38:04;;;;;;;14.98;10.88;;;;;;;37.54;66.97;100489.50;5383462;26;64697;-31
2024/04/12 09:40:40;;;;;;;17.60;11.52;;;;;;;37.56;66.18;100490.06;5381959;26;68886;-33
2024/04/12 09:45:49;;;;;;;17.80;10.27;;;;;;;37.51;66.32;100492.78;5355639;26;67987;-32
2024/04/12 10:37:36;;;;;;;14.90;11.77;;;;;;;36.94;70.06;100526.59;5380141;26;69029;-31
2024/04/12 10:40:09;;;;;;;25.25;12.25;;;;;;;36.91;69.73;100534.25;5383798;26;66088;-32
2024/04/12 10:42:46;;;;;;;19.33;11.68;;;;;;;36.88;70.00;100540.25;5368254;26;69010;-32
2024/04/12 10:45:17;;;;;;;13.55;11.07;;;;;;;36.86;70.23;100542.47;5382933;26;64226;-35
2024/04/12 10:47:48;;;;;;;24.45;11.90;;;;;;;36.85;70.70;100550.91;5384289;26;68128;-33
2024/04/12 10:50:19;;;;;;;18.15;11.95;;;;;;;36.80;70.81;100565.38;5381001;26;64151;-34
2024/04/12 10:52:51;;;;;;;17.50;12.30;;;;;;;36.73;71.23;100553.91;5384156;26;68561;-32
2024/04/12 10:55:26;;;;;;;19.75;12.55;;;;;;;36.74;71.01;100560.19;5364155;26;64421;-32
2024/04/12 10:58:01;;;;;;;25.40;12.50;;;;;;;36.75;70.07;100573.59;5382735;26;68920;-33
2024/04/12 11:00:35;;;;;;;18.05;12.45;;;;;;;36.71;70.51;100577.94;5369683;26;65259;-32
2024/04/12 11:03:17;;;;;;;22.23;11.57;;;;;;;36.70;70.05;100576.31;5383014;26;68065;-32
2024/04/12 11:06:10;;;;;;;24.13;12.45;;;;;;;36.64;70.37;100571.91;5385302;26;65664;-32
2024/04/12 11:08:41;;;;;;;23.98;13.32;;;;;;;36.62;70.43;100590.47;5397803;26;68562;-30
2024/04/12 11:11:17;;;;;;;26.23;12.38;;;;;;;36.61;69.70;100594.28;5385269;26;64309;-33
2024/04/12 11:13:52;;;;;;;23.17;12.60;;;;;;;36.58;69.58;100601.13;5381466;26;69106;-32
2024/04/12 11:33:31;;;;;;;20.75;12.20;;;;;;;36.32;70.24;100621.16;5384214;26;65351;-34
2024/04/12 11:36:10;;;;;;;17.35;12.20;;;;;;;36.24;70.55;100622.47;5382928;26;67727;-34
2024/04/12 11:38:41;;;;;;;30.42;13.05;;;;;;;36.27;70.69;100626.56;5380113;26;65039;-33
2024/04/12 11:41:15;;;;;;;14.80;12.37;;;;;;;36.22;70.95;100636.41;5390398;26;67966;-32
2024/04/12 11:43:46;;;;;;;19.02;11.05;;;;;;;36.17;70.79;100646.47;5375482;26;64316;-34
2024/04/12 11:46:19;;;;;;;15.35;12.05;;;;;;;36.13;71.19;100648.06;5383381;26;67860;-32
2024/04/12 11:48:53;;;;;;;21.20;12.57;;;;;;;36.11;71.18;100661.13;5383953;26;64020;-35
2024/04/12 11:51:33;;;;;;;13.38;11.98;;;;;;;36.09;71.66;100668.78;5380675;26;68708;-32
2024/04/12 11:54:06;;;;;;;13.93;12.55;;;;;;;36.05;71.80;100673.94;5384905;26;65760;-33
2024/04/12 11:56:39;;;;;;;13.98;11.82;;;;;;;36.05;71.53;100681.25;5379118;26;68788;-34
2024/04/12 11:59:10;;;;;;;15.10;12.13;;;;;;;36.03;71.48;100681.53;5383877;26;64749;-33
2024/04/12 12:01:41;;;;;;;17.27;12.47;;;;;;;35.89;71.20;100667.50;5383817;26;68539;-34
2024/04/12 12:04:13;;;;;;;13.60;11.82;;;;;;;36.00;71.54;100693.81;5380116;26;65174;-35
2024/04/12 12:06:43;;;;;;;;;;;;;;;35.88;72.42;100701.31;5383800;26;68099;-33
2024/04/12 12:09:14;;;;;;;12.77;11.50;;;;;;;35.96;71.50;100698.13;5384133;26;64618;-34
2024/04/12 12:11:45;;;;;;;16.83;12.75;;;;;;;35.96;72.10;100698.13;5380555;26;67983;-32
2024/04/12 12:14:17;;;;;;;12.13;10.65;;;;;;;35.93;71.97;100687.72;5386348;26;64367;-36
2024/04/12 12:16:49;;;;;;;14.68;12.98;;;;;;;35.89;71.96;100692.06;5396263;26;68175;-33
2024/04/12 12:19:20;;;;;;;19.23;13.17;;;;;;;35.87;71.64;100688.78;5385600;26;65205;-35
2024/04/12 12:21:51;;;;;;;18.30;12.60;;;;;;;35.83;72.03;100697.72;5383286;26;68662;-32
2024/04/12 12:24:21;;;;;;;14.75;12.02;;;;;;;35.86;72.49;100703.50;5387063;26;65446;-33
2024/04/12 12:26:52;;;;;;;15.13;11.83;;;;;;;35.84;72.13;100700.22;5407597;26;69505;-35
2024/04/12 12:29:25;;;;;;;15.75;11.90;;;;;;;35.84;72.31;100710.31;5386397;26;66206;-33
2024/04/12 12:31:56;;;;;;;14.15;11.95;;;;;;;35.79;72.65;100714.63;5385617;26;67815;-32
2024/04/12 12:34:27;;;;;;;14.95;12.27;;;;;;;35.78;72.40;100717.63;5385655;26;63945;-34
2024/04/12 12:36:59;;;;;;;13.98;12.32;;;;;;;35.77;72.35;100721.41;5385171;26;68661;-33
2024/04/12 12:39:33;;;;;;;14.15;12.63;;;;;;;35.75;72.53;100712.69;5381521;26;64859;-32
2024/04/12 12:42:05;;;;;;;14.05;12.02;;;;;;;35.76;72.64;100725.22;5396641;26;68721;-33
2024/04/12 12:44:36;;;;;;;17.58;12.45;;;;;;;35.74;72.41;100716.47;5385800;26;65508;-33
2024/04/12 12:47:08;;;;;;;22.23;12.90;;;;;;;35.71;72.71;100728.72;5382884;26;68391;-33
2024/04/12 12:49:46;;;;;;;14.63;12.15;;;;;;;35.69;72.58;100725.44;5372816;26;65095;-32
2024/04/12 12:52:17;;;;;;;18.77;13.02;;;;;;;35.68;72.69;100733.88;5384351;26;67872;-33
2024/04/12 12:54:48;;;;;;;14.18;12.02;;;;;;;35.64;73.30;100738.22;5386444;26;64953;-33
2024/04/12 12:57:25;;;;;;;13.40;12.15;;;;;;;35.64;73.32;100740.94;5386066;26;68513;-33